Time;durP1;ratioP1;P1;durP2;ratioP2;P2;SDS_P1;SDS_P2;PMS_P1;PMS_P2;Temp;Humidity;BMP_temperature;BMP_pressure;BME280_temperature;BME280_humidity;BME280_pressure;Samples;Min_cycle;Max_cycle;Signal;HPM_P1;HPM_P2
2023/11/28 00:00:34;;;;;;;5.68;2.60;;;6.70;99.90;;;;;;5008354;28;20045;-66
2023/11/28 00:03:01;;;;;;;6.32;2.17;;;6.70;99.90;;;;;;5026146;28;20493;-66
2023/11/28 00:05:28;;;;;;;5.72;2.63;;;6.70;99.90;;;;;;5032681;28;20068;-66
2023/11/28 00:07:55;;;;;;;5.78;2.10;;;6.70;99.90;;;;;;5027900;28;20048;-66
2023/11/28 00:10:22;;;;;;;4.43;2.33;;;6.70;99.90;;;;;;5029623;28;20049;-66
2023/11/28 00:12:49;;;;;;;7.93;2.90;;;6.70;99.90;;;;;;5028391;28;20069;-66
2023/11/28 00:15:16;;;;;;;6.85;2.55;;;6.70;99.90;;;;;;5028403;28;20053;-67
2023/11/28 00:17:43;;;;;;;7.70;2.20;;;6.70;99.90;;;;;;5025245;28;20045;-66
2023/11/28 00:20:11;;;;;;;5.22;2.33;;;6.80;99.90;;;;;;5011136;28;20041;-66
2023/11/28 00:22:37;;;;;;;7.97;2.33;;;6.70;99.90;;;;;;5011045;28;20061;-66
2023/11/28 00:25:05;;;;;;;3.38;2.45;;;6.70;99.90;;;;;;5028143;28;20493;-66
2023/11/28 00:27:32;;;;;;;4.28;2.30;;;6.70;99.90;;;;;;5028287;28;20456;-66
2023/11/28 00:29:59;;;;;;;3.53;2.10;;;6.70;99.90;;;;;;5026993;28;20041;-66
2023/11/28 00:32:26;;;;;;;4.95;2.20;;;6.70;99.90;;;;;;5028284;28;20354;-67
2023/11/28 00:34:53;;;;;;;7.43;2.47;;;6.70;99.90;;;;;;5022613;28;20069;-67
2023/11/28 00:37:21;;;;;;;6.28;2.58;;;6.80;99.90;;;;;;5028299;28;20096;-66
2023/11/28 00:39:48;;;;;;;7.07;1.98;;;6.80;99.90;;;;;;5027173;28;20053;-66
2023/11/28 00:42:15;;;;;;;10.50;2.47;;;6.70;99.90;;;;;;5025552;28;20050;-66
2023/11/28 00:44:42;;;;;;;4.82;2.10;;;6.70;99.90;;;;;;5026730;28;20045;-67
2023/11/28 00:47:09;;;;;;;4.93;2.10;;;6.60;99.90;;;;;;5028677;28;20049;-67
2023/11/28 00:49:41;;;;;;;3.42;1.65;;;6.60;99.90;;;;;;5028114;28;20065;-66
2023/11/28 00:52:08;;;;;;;4.18;1.80;;;6.60;99.90;;;;;;5011203;28;20095;-66
2023/11/28 00:54:36;;;;;;;2.92;1.95;;;6.70;99.90;;;;;;5022188;28;20069;-66
2023/11/28 00:57:04;;;;;;;5.35;2.08;;;6.60;99.90;;;;;;5020452;28;20053;-66
2023/11/28 00:59:31;;;;;;;3.60;1.63;;;6.60;99.90;;;;;;5012478;28;20064;-66
2023/11/28 01:01:58;;;;;;;6.88;2.03;;;6.60;99.90;;;;;;5014498;28;20053;-66
2023/11/28 01:04:25;;;;;;;4.70;2.17;;;6.70;99.90;;;;;;5028599;28;20055;-66
2023/11/28 01:06:52;;;;;;;5.45;2.50;;;6.60;99.90;;;;;;5026804;28;20052;-66
2023/11/28 01:09:19;;;;;;;6.10;2.20;;;6.60;99.90;;;;;;5027575;28;20484;-66
2023/11/28 01:11:46;;;;;;;5.55;1.33;;;6.50;99.90;;;;;;5028198;28;20087;-65
2023/11/28 01:14:13;;;;;;;5.13;2.00;;;6.50;99.90;;;;;;5026107;28;20123;-65
2023/11/28 01:16:39;;;;;;;5.55;2.00;;;6.50;99.90;;;;;;5028074;28;20055;-65
2023/11/28 01:19:06;;;;;;;6.03;1.80;;;6.50;99.90;;;;;;5009268;28;20133;-66
2023/11/28 01:21:33;;;;;;;7.57;1.52;;;6.50;99.90;;;;;;5028418;28;20045;-68
2023/11/28 01:24:00;;;;;;;4.78;1.60;;;6.50;99.90;;;;;;4678056;28;10000304;-66
2023/11/28 01:26:27;;;;;;;5.20;2.22;;;6.50;99.90;;;;;;5020792;28;20095;-66
2023/11/28 01:28:54;;;;;;;6.35;2.25;;;6.50;99.90;;;;;;5022547;28;20046;-66
2023/11/28 01:31:24;;;;;;;5.35;2.33;;;6.50;99.90;;;;;;5008081;28;20068;-66
2023/11/28 01:33:51;;;;;;;3.80;1.60;;;6.50;99.90;;;;;;5025162;28;20103;-66
2023/11/28 01:36:18;;;;;;;8.20;2.33;;;6.50;99.90;;;;;;5024354;28;20393;-66
2023/11/28 01:38:45;;;;;;;4.35;2.15;;;6.50;99.90;;;;;;5027533;28;20048;-66
2023/11/28 01:41:11;;;;;;;3.67;1.58;;;6.50;99.90;;;;;;5027545;28;20045;-66
2023/11/28 01:43:38;;;;;;;8.82;2.97;;;6.50;99.90;;;;;;5026590;28;20054;-66
2023/11/28 01:46:07;;;;;;;6.03;1.60;;;6.50;99.90;;;;;;5026955;28;20046;-66
2023/11/28 01:48:37;;;;;;;5.20;2.03;;;6.50;99.90;;;;;;5010066;28;20050;-67
2023/11/28 01:51:05;;;;;;;5.95;2.17;;;6.40;99.90;;;;;;5009809;28;20128;-65
2023/11/28 01:53:32;;;;;;;3.67;1.90;;;6.40;99.90;;;;;;5027106;28;20045;-66
2023/11/28 01:55:59;;;;;;;5.75;1.95;;;6.40;99.90;;;;;;4992199;28;20512;-66
2023/11/28 01:58:27;;;;;;;5.63;3.55;;;6.40;99.90;;;;;;4997205;28;20420;-65
2023/11/28 02:00:54;;;;;;;6.60;1.95;;;6.40;99.90;;;;;;5009814;28;20049;-67
2023/11/28 02:03:21;;;;;;;3.83;2.03;;;6.40;99.90;;;;;;5009402;28;20481;-67
2023/11/28 02:05:48;;;;;;;15.05;4.32;;;6.40;99.90;;;;;;5024039;28;20127;-67
2023/11/28 02:08:15;;;;;;;5.47;2.17;;;6.40;99.90;;;;;;5024999;28;20056;-66
2023/11/28 02:10:41;;;;;;;8.20;1.73;;;6.40;99.90;;;;;;5027523;28;20512;-65
2023/11/28 02:13:09;;;;;;;3.90;1.83;;;6.40;99.90;;;;;;5010057;28;20045;-67
2023/11/28 02:15:41;;;;;;;3.53;2.05;;;6.40;99.90;;;;;;5026968;28;20056;-66
2023/11/28 02:18:09;;;;;;;5.95;2.20;;;6.40;99.90;;;;;;5010055;28;20045;-66
2023/11/28 02:20:37;;;;;;;3.58;1.80;;;6.40;99.90;;;;;;4991495;28;20046;-66
2023/11/28 02:23:04;;;;;;;6.85;2.95;;;6.40;99.90;;;;;;5025098;28;20092;-66
2023/11/28 02:25:34;;;;;;;5.80;1.98;;;6.40;99.90;;;;;;5010948;28;20056;-66
2023/11/28 02:28:01;;;;;;;3.83;2.13;;;6.40;99.90;;;;;;5009704;28;20120;-66
2023/11/28 02:30:28;;;;;;;4.32;1.80;;;6.30;99.90;;;;;;5010470;28;20042;-66
2023/11/28 02:32:55;;;;;;;4.75;2.05;;;6.30;99.90;;;;;;5029976;28;20050;-66
2023/11/28 02:35:22;;;;;;;4.20;1.95;;;6.30;99.90;;;;;;5030086;28;20057;-66
2023/11/28 02:37:49;;;;;;;7.13;1.60;;;6.40;99.90;;;;;;5030176;28;20045;-66
2023/11/28 02:40:16;;;;;;;9.05;2.05;;;6.30;99.90;;;;;;5029586;28;20053;-66
2023/11/28 02:42:43;;;;;;;3.35;2.00;;;6.20;99.90;;;;;;5024833;28;20049;-66
2023/11/28 02:45:10;;;;;;;6.07;2.30;;;6.20;99.90;;;;;;5030260;28;20145;-65
2023/11/28 02:47:37;;;;;;;7.90;2.70;;;6.20;99.90;;;;;;5028560;28;20045;-65
2023/11/28 02:50:04;;;;;;;5.50;2.30;;;6.20;99.90;;;;;;5028545;28;20049;-66
2023/11/28 02:52:31;;;;;;;3.40;1.70;;;6.20;99.90;;;;;;5029826;28;20320;-66
2023/11/28 02:54:58;;;;;;;7.82;2.28;;;6.20;99.90;;;;;;5029633;28;20041;-66
2023/11/28 02:57:25;;;;;;;9.20;2.42;;;6.10;99.90;;;;;;5010645;28;20049;-65
2023/11/28 02:59:52;;;;;;;7.22;1.98;;;6.10;99.90;;;;;;5027967;28;20061;-66
2023/11/28 03:02:19;;;;;;;6.68;2.38;;;6.20;99.90;;;;;;5029765;28;20064;-65
2023/11/28 03:04:46;;;;;;;4.90;2.15;;;6.20;99.90;;;;;;5027771;28;20125;-65
2023/11/28 03:07:13;;;;;;;10.20;2.22;;;6.10;99.90;;;;;;5028362;28;20041;-65
2023/11/28 03:09:42;;;;;;;4.55;2.40;;;6.10;99.90;;;;;;5012302;28;20053;-66
2023/11/28 03:12:09;;;;;;;7.53;2.22;;;6.10;99.90;;;;;;5029930;28;20096;-65
2023/11/28 03:14:36;;;;;;;8.15;2.28;;;6.10;99.90;;;;;;5029609;28;20091;-65
2023/11/28 03:17:03;;;;;;;10.15;2.40;;;6.10;99.90;;;;;;5010277;28;20099;-65
2023/11/28 03:19:30;;;;;;;8.73;2.00;;;6.10;99.90;;;;;;5029480;28;20132;-65
2023/11/28 03:21:57;;;;;;;5.07;2.00;;;6.10;99.90;;;;;;5008951;28;20062;-64
2023/11/28 03:24:24;;;;;;;6.88;2.25;;;6.10;99.90;;;;;;5029234;28;20053;-66
2023/11/28 03:26:51;;;;;;;10.45;2.03;;;6.00;99.90;;;;;;5012193;28;20045;-66
2023/11/28 03:29:18;;;;;;;8.73;2.25;;;5.90;99.90;;;;;;5032434;28;20130;-66
2023/11/28 03:31:45;;;;;;;10.13;1.90;;;5.90;99.90;;;;;;5030138;28;20053;-66
2023/11/28 03:34:12;;;;;;;8.80;2.47;;;5.90;99.90;;;;;;5027355;28;20536;-68
2023/11/28 03:36:39;;;;;;;5.75;2.22;;;5.80;99.90;;;;;;5026788;28;20037;-66
2023/11/28 03:39:05;;;;;;;9.43;2.53;;;5.80;99.90;;;;;;5029234;28;20095;-66
2023/11/28 03:41:33;;;;;;;6.25;2.42;;;5.80;99.90;;;;;;5029351;28;20077;-66
2023/11/28 03:44:00;;;;;;;3.63;2.10;;;5.70;99.90;;;;;;5010891;28;20045;-68
2023/11/28 03:46:27;;;;;;;9.52;2.20;;;5.70;99.90;;;;;;5028516;28;20060;-66
2023/11/28 03:48:54;;;;;;;4.93;1.67;;;5.60;99.90;;;;;;5028653;28;20115;-65
2023/11/28 03:51:21;;;;;;;6.53;2.30;;;5.50;99.90;;;;;;5029443;28;20045;-67
2023/11/28 03:53:48;;;;;;;6.50;2.40;;;5.50;99.90;;;;;;5027200;28;20045;-66
2023/11/28 03:56:15;;;;;;;6.47;2.05;;;5.40;99.90;;;;;;5027005;28;20045;-66
2023/11/28 03:58:43;;;;;;;9.48;2.55;;;5.30;99.90;;;;;;5002527;28;20493;-66
2023/11/28 04:01:10;;;;;;;16.35;3.25;;;5.30;99.90;;;;;;5028704;28;20103;-66
2023/11/28 04:03:37;;;;;;;3.78;1.85;;;5.30;99.90;;;;;;5028097;28;20493;-66
2023/11/28 04:06:04;;;;;;;10.23;1.95;;;5.30;99.90;;;;;;5023198;28;20082;-67
2023/11/28 04:08:31;;;;;;;9.02;2.03;;;5.30;99.90;;;;;;5028487;28;20049;-66
2023/11/28 04:10:58;;;;;;;6.25;2.10;;;5.30;99.90;;;;;;5010406;28;20130;-65
2023/11/28 04:13:25;;;;;;;7.78;2.22;;;5.20;99.90;;;;;;5010788;28;20103;-66
2023/11/28 04:15:51;;;;;;;10.00;2.15;;;5.20;99.90;;;;;;5029122;28;20496;-66
2023/11/28 04:18:18;;;;;;;9.85;2.70;;;5.20;99.90;;;;;;5025584;28;20057;-66
2023/11/28 04:20:45;;;;;;;5.40;1.80;;;5.20;99.90;;;;;;5028263;28;20037;-66
2023/11/28 04:23:12;;;;;;;5.72;2.20;;;5.20;99.90;;;;;;5012994;28;20049;-66
2023/11/28 04:25:39;;;;;;;4.85;2.00;;;5.20;99.90;;;;;;5027967;28;20099;-66
2023/11/28 04:28:06;;;;;;;11.23;3.72;;;5.10;99.90;;;;;;5028489;28;20089;-65
2023/11/28 04:30:33;;;;;;;5.00;2.35;;;5.10;99.90;;;;;;5028115;28;20532;-66
2023/11/28 04:33:00;;;;;;;8.85;2.03;;;5.00;99.90;;;;;;5010463;28;20428;-66
2023/11/28 04:35:27;;;;;;;6.68;1.88;;;5.00;99.90;;;;;;5028107;28;20263;-66
2023/11/28 04:37:53;;;;;;;9.48;2.33;;;5.00;99.90;;;;;;5028310;28;20053;-66
2023/11/28 04:40:20;;;;;;;5.55;1.77;;;5.00;99.90;;;;;;5027952;28;20790;-66
2023/11/28 04:42:47;;;;;;;6.38;2.22;;;5.00;99.90;;;;;;5027512;28;20504;-66
2023/11/28 04:45:14;;;;;;;6.22;1.90;;;5.00;99.90;;;;;;5010412;28;20077;-65
2023/11/28 04:47:41;;;;;;;4.50;1.70;;;4.90;99.90;;;;;;5029255;28;20045;-66
2023/11/28 04:50:08;;;;;;;7.80;2.47;;;4.90;99.90;;;;;;5010952;28;20112;-66
2023/11/28 04:52:35;;;;;;;8.75;1.63;;;4.90;99.90;;;;;;5027825;28;20049;-66
2023/11/28 04:55:03;;;;;;;7.55;1.92;;;4.90;99.90;;;;;;5026044;28;20053;-65
2023/11/28 04:57:30;;;;;;;5.57;1.58;;;4.90;99.90;;;;;;5027540;28;20045;-66
2023/11/28 04:59:56;;;;;;;7.43;2.03;;;4.90;99.90;;;;;;5028534;28;20057;-66
2023/11/28 05:02:23;;;;;;;11.43;2.22;;;4.80;99.90;;;;;;5027857;28;20053;-65
2023/11/28 05:04:50;;;;;;;6.55;2.47;;;4.90;99.90;;;;;;5009755;28;20057;-66
2023/11/28 05:07:18;;;;;;;8.23;2.53;;;4.90;99.90;;;;;;5027467;28;20562;-65
2023/11/28 05:09:45;;;;;;;6.82;2.03;;;4.90;99.90;;;;;;5027241;28;20071;-65
2023/11/28 05:12:11;;;;;;;4.15;2.00;;;4.90;99.90;;;;;;5028111;28;20045;-66
2023/11/28 05:14:38;;;;;;;6.70;2.00;;;4.90;99.90;;;;;;5027142;28;20096;-65
2023/11/28 05:17:05;;;;;;;10.43;2.00;;;4.90;99.90;;;;;;5025363;28;20050;-66
2023/11/28 05:19:32;;;;;;;6.78;2.08;;;4.90;99.90;;;;;;5027776;28;20115;-65
2023/11/28 05:21:59;;;;;;;5.28;2.17;;;4.90;99.90;;;;;;5027609;28;20045;-66
2023/11/28 05:24:26;;;;;;;5.38;1.60;;;4.90;99.90;;;;;;5027555;28;20061;-67
2023/11/28 05:26:53;;;;;;;5.85;1.73;;;4.90;99.90;;;;;;5026304;28;20451;-65
2023/11/28 05:29:20;;;;;;;7.15;1.77;;;5.00;99.90;;;;;;5027403;28;20049;-66
2023/11/28 05:31:47;;;;;;;6.57;1.88;;;4.90;99.90;;;;;;5027223;28;20044;-66
2023/11/28 05:34:13;;;;;;;11.00;1.65;;;4.90;99.90;;;;;;5027223;28;20045;-65
2023/11/28 05:36:40;;;;;;;7.35;1.88;;;4.90;99.90;;;;;;5027192;28;20037;-65
2023/11/28 05:39:08;;;;;;;9.73;2.28;;;4.80;99.90;;;;;;5027366;28;20041;-65
2023/11/28 05:41:35;;;;;;;8.90;2.00;;;4.80;99.90;;;;;;5027687;28;20088;-65
2023/11/28 05:44:04;;;;;;;7.32;1.88;;;4.80;99.90;;;;;;5027114;28;20493;-66
2023/11/28 05:46:31;;;;;;;9.55;1.52;;;4.80;99.90;;;;;;5021871;28;20041;-66
2023/11/28 05:48:57;;;;;;;7.72;1.77;;;4.90;99.90;;;;;;5027301;28;20088;-65
2023/11/28 05:51:25;;;;;;;6.10;2.08;;;4.80;99.90;;;;;;5014660;28;20057;-65
2023/11/28 05:53:52;;;;;;;14.60;2.47;;;4.80;99.90;;;;;;5029071;28;20049;-65
2023/11/28 05:56:19;;;;;;;10.50;2.08;;;4.80;99.90;;;;;;5027004;28;20049;-67
2023/11/28 05:58:46;;;;;;;9.05;2.08;;;4.80;99.90;;;;;;5026507;28;20049;-67
2023/11/28 06:01:14;;;;;;;9.20;2.35;;;4.70;99.90;;;;;;5030839;28;20041;-65
2023/11/28 06:03:41;;;;;;;5.25;2.05;;;4.70;99.90;;;;;;5030053;28;20124;-65
2023/11/28 06:06:09;;;;;;;10.07;2.08;;;4.70;99.90;;;;;;5027931;28;20053;-66
2023/11/28 06:08:35;;;;;;;7.72;2.25;;;4.70;99.90;;;;;;5013340;28;20068;-65
2023/11/28 06:11:02;;;;;;;8.60;2.63;;;4.70;99.90;;;;;;5030689;28;20485;-66
2023/11/28 06:13:30;;;;;;;11.32;2.28;;;4.70;99.90;;;;;;5029713;28;20053;-66
2023/11/28 06:15:58;;;;;;;7.63;1.50;;;4.70;99.90;;;;;;5030703;28;20044;-65
2023/11/28 06:18:26;;;;;;;4.75;1.73;;;4.70;99.90;;;;;;5028839;28;20083;-66
2023/11/28 06:20:53;;;;;;;10.90;2.45;;;4.70;99.90;;;;;;5030523;28;20103;-65
2023/11/28 06:23:20;;;;;;;5.28;1.92;;;4.70;99.90;;;;;;5028085;28;20096;-66
2023/11/28 06:25:47;;;;;;;9.20;2.20;;;4.60;99.90;;;;;;5020797;28;20058;-66
2023/11/28 06:28:14;;;;;;;10.98;2.42;;;4.60;99.90;;;;;;5016836;28;20045;-67
2023/11/28 06:30:41;;;;;;;10.52;1.85;;;4.60;99.90;;;;;;5025014;28;20095;-66
2023/11/28 06:33:08;;;;;;;9.90;1.85;;;4.50;99.90;;;;;;5011500;28;20119;-65
2023/11/28 06:35:35;;;;;;;4.38;1.90;;;4.50;99.90;;;;;;5029927;28;20054;-66
2023/11/28 06:38:03;;;;;;;9.80;2.33;;;4.50;99.90;;;;;;5028040;28;20045;-65
2023/11/28 06:40:30;;;;;;;7.28;2.63;;;4.50;99.90;;;;;;5027349;28;20042;-65
2023/11/28 06:42:58;;;;;;;11.43;2.53;;;4.40;99.90;;;;;;5003268;28;20054;-66
2023/11/28 06:45:25;;;;;;;8.98;2.03;;;4.40;99.90;;;;;;5023802;28;20049;-66
2023/11/28 06:47:52;;;;;;;3.78;1.88;;;4.40;99.90;;;;;;5026982;28;20258;-66
2023/11/28 06:50:20;;;;;;;5.78;1.92;;;4.40;99.90;;;;;;5024294;28;20433;-66
2023/11/28 06:52:47;;;;;;;8.23;2.50;;;4.40;99.90;;;;;;4992032;28;20042;-64
2023/11/28 06:55:15;;;;;;;6.68;2.75;;;4.40;99.90;;;;;;5021265;28;20064;-64
2023/11/28 06:57:45;;;;;;;9.05;2.17;;;4.40;99.90;;;;;;5026506;28;20132;-64
2023/11/28 07:00:13;;;;;;;11.73;2.13;;;4.40;99.90;;;;;;5024789;28;20072;-64
2023/11/28 07:02:39;;;;;;;7.47;2.22;;;4.40;99.90;;;;;;5020727;28;20056;-64
2023/11/28 07:05:07;;;;;;;9.90;2.40;;;4.40;99.90;;;;;;5018355;28;20097;-63
2023/11/28 07:07:34;;;;;;;6.85;2.35;;;4.40;99.90;;;;;;5027316;28;20045;-65
2023/11/28 07:10:04;;;;;;;9.27;2.03;;;4.40;99.90;;;;;;5027956;28;20412;-65
2023/11/28 07:12:30;;;;;;;9.57;2.83;;;4.40;99.90;;;;;;4999020;28;20053;-64
2023/11/28 07:14:57;;;;;;;12.23;2.05;;;4.40;99.90;;;;;;5013289;28;20072;-64
2023/11/28 07:17:26;;;;;;;9.75;2.30;;;4.40;99.90;;;;;;5021361;28;20054;-63
2023/11/28 07:19:53;;;;;;;8.93;2.40;;;4.40;99.90;;;;;;5024189;28;20049;-63
2023/11/28 07:22:20;;;;;;;4.97;1.75;;;4.30;99.90;;;;;;5022877;28;20057;-63
2023/11/28 07:24:47;;;;;;;7.25;1.95;;;4.30;99.90;;;;;;5025174;28;20080;-64
2023/11/28 07:27:14;;;;;;;6.45;1.98;;;4.30;99.90;;;;;;5023935;28;20041;-63
2023/11/28 07:29:41;;;;;;;8.50;2.28;;;4.30;99.90;;;;;;5020322;28;20057;-65
2023/11/28 07:32:08;;;;;;;7.70;2.40;;;4.20;99.90;;;;;;5025931;28;20045;-64
2023/11/28 07:34:35;;;;;;;6.22;2.55;;;4.20;99.90;;;;;;5017619;28;20057;-63
2023/11/28 07:37:03;;;;;;;9.35;2.33;;;4.20;99.90;;;;;;5028044;28;20393;-64
2023/11/28 07:39:30;;;;;;;5.68;2.47;;;4.30;99.90;;;;;;5013764;28;20601;-63
2023/11/28 07:41:57;;;;;;;10.43;2.33;;;4.20;99.90;;;;;;5020011;28;20124;-63
2023/11/28 07:44:24;;;;;;;11.15;2.45;;;4.20;99.90;;;;;;5018900;28;20060;-63
2023/11/28 07:46:51;;;;;;;10.10;2.17;;;4.20;99.90;;;;;;5026299;28;20477;-64
2023/11/28 07:49:18;;;;;;;3.53;2.05;;;4.20;99.90;;;;;;5023144;28;20049;-64
2023/11/28 07:51:45;;;;;;;11.05;3.78;;;4.20;99.90;;;;;;5023744;28;20127;-63
2023/11/28 07:54:12;;;;;;;11.00;3.17;;;4.20;99.90;;;;;;5008107;28;20081;-64
2023/11/28 07:56:39;;;;;;;8.40;2.10;;;4.20;99.90;;;;;;5028127;28;20187;-64
2023/11/28 07:59:06;;;;;;;5.93;1.90;;;4.10;99.90;;;;;;5026629;28;20045;-65
2023/11/28 08:01:33;;;;;;;5.38;2.70;;;4.10;99.90;;;;;;5008559;28;20053;-63
2023/11/28 08:04:00;;;;;;;5.78;2.45;;;4.10;99.90;;;;;;5026843;28;20091;-64
2023/11/28 08:06:27;;;;;;;9.25;3.42;;;4.20;99.90;;;;;;5014197;28;20119;-63
2023/11/28 08:08:53;;;;;;;10.57;2.08;;;4.10;99.90;;;;;;5022326;28;20066;-64
2023/11/28 08:11:20;;;;;;;7.88;2.42;;;4.10;99.90;;;;;;5020645;28;20112;-63
2023/11/28 08:13:48;;;;;;;11.35;2.97;;;4.20;99.90;;;;;;5027485;28;20077;-63
2023/11/28 08:16:15;;;;;;;14.93;3.50;;;4.20;99.90;;;;;;5025464;28;20060;-63
2023/11/28 08:18:42;;;;;;;16.38;2.33;;;4.20;99.90;;;;;;5024610;28;20127;-64
2023/11/28 08:21:09;;;;;;;16.27;3.42;;;4.20;99.90;;;;;;5018049;28;20068;-64
2023/11/28 08:23:37;;;;;;;7.93;2.55;;;4.20;99.90;;;;;;5025863;28;20042;-64
2023/11/28 08:26:04;;;;;;;7.97;2.30;;;4.20;99.90;;;;;;5014885;28;20108;-63
2023/11/28 08:28:31;;;;;;;12.93;3.28;;;4.20;99.90;;;;;;4999471;28;20049;-63
2023/11/28 08:30:58;;;;;;;7.50;2.17;;;4.30;99.90;;;;;;5017242;28;20629;-63
2023/11/28 08:33:25;;;;;;;8.40;2.22;;;4.30;99.90;;;;;;5022838;28;20049;-63
2023/11/28 08:35:52;;;;;;;7.63;2.35;;;4.30;99.90;;;;;;5024281;28;20049;-65
2023/11/28 08:38:18;;;;;;;6.05;1.85;;;4.40;99.90;;;;;;5023861;28;20432;-64
2023/11/28 08:40:47;;;;;;;9.38;2.53;;;4.40;99.90;;;;;;5024441;28;20053;-62
2023/11/28 08:43:14;;;;;;;11.30;2.17;;;4.40;99.90;;;;;;5003685;28;20475;-61
2023/11/28 08:45:41;;;;;;;6.03;2.25;;;4.40;99.90;;;;;;5021790;28;20049;-62
2023/11/28 08:48:09;;;;;;;8.20;1.83;;;4.50;99.90;;;;;;5023439;28;20068;-62
2023/11/28 08:50:37;;;;;;;9.80;2.88;;;4.50;99.90;;;;;;5025082;28;20053;-64
2023/11/28 08:53:04;;;;;;;15.88;4.10;;;4.50;99.90;;;;;;5018384;28;20045;-63
2023/11/28 08:55:31;;;;;;;8.05;2.30;;;4.50;99.90;;;;;;5021939;28;20523;-62
2023/11/28 08:57:58;;;;;;;6.43;2.00;;;4.50;99.90;;;;;;5026597;28;20444;-62
2023/11/28 09:00:25;;;;;;;15.00;4.05;;;4.50;99.90;;;;;;5027319;28;20049;-62
2023/11/28 09:02:52;;;;;;;8.55;2.70;;;4.60;99.90;;;;;;5027023;28;20072;-63
2023/11/28 09:05:20;;;;;;;6.07;2.03;;;4.70;99.90;;;;;;5026748;28;20492;-63
2023/11/28 09:07:49;;;;;;;8.93;2.67;;;4.70;99.90;;;;;;5027810;28;20050;-62
2023/11/28 09:10:16;;;;;;;10.52;2.35;;;4.70;99.90;;;;;;5025361;28;20042;-62
2023/11/28 09:12:47;;;;;;;5.28;2.22;;;4.70;99.90;;;;;;5024022;28;20133;-63
2023/11/28 09:15:15;;;;;;;8.75;3.30;;;4.80;99.90;;;;;;5022880;28;20433;-63
2023/11/28 09:17:42;;;;;;;11.05;2.63;;;4.80;99.90;;;;;;5024093;28;20060;-62
2023/11/28 09:20:09;;;;;;;13.20;2.97;;;4.90;99.90;;;;;;5023694;28;20045;-62
2023/11/28 09:22:36;;;;;;;6.95;2.80;;;4.90;99.90;;;;;;5024091;28;20045;-62
2023/11/28 09:25:04;;;;;;;9.45;2.10;;;4.90;99.90;;;;;;5025472;28;20057;-61
2023/11/28 09:27:30;;;;;;;10.02;3.53;;;5.00;99.90;;;;;;5026935;28;20049;-62
2023/11/28 09:29:57;;;;;;;11.30;2.50;;;5.10;99.90;;;;;;5026824;28;20049;-62
2023/11/28 09:32:25;;;;;;;11.57;2.45;;;5.00;99.90;;;;;;5009390;28;20060;-62
2023/11/28 09:34:52;;;;;;;7.53;2.60;;;5.10;99.90;;;;;;5006835;28;20053;-62
2023/11/28 09:37:19;;;;;;;6.43;3.20;;;5.10;99.90;;;;;;5019388;28;20068;-62
2023/11/28 09:39:46;;;;;;;26.60;4.78;;;5.20;99.90;;;;;;5007753;28;20056;-62
2023/11/28 09:42:13;;;;;;;13.82;3.90;;;5.20;99.90;;;;;;5025207;28;20119;-62
2023/11/28 09:44:42;;;;;;;12.48;2.65;;;5.30;99.90;;;;;;5009290;28;20577;-63
2023/11/28 09:47:10;;;;;;;7.25;2.75;;;5.30;99.90;;;;;;5025875;28;20041;-63
2023/11/28 09:49:41;;;;;;;14.52;3.15;;;5.30;99.90;;;;;;4990046;28;20096;-62
2023/11/28 09:52:13;;;;;;;11.57;3.33;;;5.40;99.90;;;;;;5026773;28;20041;-62
2023/11/28 09:54:40;;;;;;;12.23;2.85;;;5.40;99.90;;;;;;5010091;28;20435;-61
2023/11/28 09:57:08;;;;;;;14.07;3.15;;;5.40;99.90;;;;;;5009628;28;20052;-61
2023/11/28 09:59:38;;;;;;;6.22;2.08;;;5.40;99.90;;;;;;5027721;28;20046;-62
2023/11/28 10:02:14;;;;;;;15.63;2.90;;;5.40;99.90;;;;;;5028472;28;20129;-62
2023/11/28 10:04:42;;;;;;;13.23;2.78;;;5.50;99.90;;;;;;5010507;28;20057;-62
2023/11/28 10:07:09;;;;;;;12.07;3.40;;;5.50;99.90;;;;;;5010207;28;20064;-62
2023/11/28 10:09:36;;;;;;;9.90;2.92;;;5.60;99.90;;;;;;5009903;28;20041;-62
2023/11/28 10:12:06;;;;;;;11.52;2.95;;;5.60;99.90;;;;;;5027804;28;20045;-62
2023/11/28 10:14:33;;;;;;;11.05;2.50;;;5.70;99.90;;;;;;5026784;28;20052;-62
2023/11/28 10:17:00;;;;;;;9.00;3.33;;;5.70;99.90;;;;;;5027007;28;20104;-62
2023/11/28 10:19:28;;;;;;;11.20;2.67;;;5.70;99.90;;;;;;5026107;28;20181;-63
2023/11/28 10:21:55;;;;;;;11.82;2.33;;;5.70;99.90;;;;;;5026958;28;20049;-62
2023/11/28 10:24:22;;;;;;;13.82;2.60;;;5.70;99.90;;;;;;5026716;28;20046;-62
2023/11/28 10:26:49;;;;;;;10.88;3.28;;;5.80;99.90;;;;;;5009597;28;20044;-62
2023/11/28 10:29:17;;;;;;;8.05;3.00;;;5.80;99.90;;;;;;5009924;28;20053;-62
2023/11/28 10:31:43;;;;;;;9.85;2.45;;;5.80;99.90;;;;;;5010585;28;20302;-62
2023/11/28 10:34:11;;;;;;;10.05;3.15;;;5.90;99.90;;;;;;5028701;28;20041;-63
2023/11/28 10:36:44;;;;;;;7.00;2.05;;;5.80;99.90;;;;;;5029615;28;20537;-62
2023/11/28 10:39:15;;;;;;;7.05;3.20;;;5.80;99.90;;;;;;5026726;28;20080;-63
2023/11/28 10:41:42;;;;;;;10.20;2.75;;;5.90;99.90;;;;;;5028133;28;20049;-63
2023/11/28 10:44:09;;;;;;;6.82;2.50;;;5.90;99.90;;;;;;5026416;28;20050;-63
2023/11/28 10:46:38;;;;;;;11.63;2.70;;;5.90;99.90;;;;;;5027860;28;20233;-62
2023/11/28 10:49:05;;;;;;;7.72;2.22;;;5.90;99.90;;;;;;5026730;28;20076;-63
2023/11/28 10:51:33;;;;;;;5.07;2.00;;;6.00;99.90;;;;;;5022788;28;20049;-63
2023/11/28 10:54:07;;;;;;;6.93;2.33;;;6.00;99.90;;;;;;5029554;28;20045;-63
2023/11/28 10:56:50;;;;;;;;;;;6.10;99.90;;;;;;5025977;28;20336;-63
2023/11/28 10:59:44;;;;;;;9.18;2.10;;;6.10;99.90;;;;;;5028277;28;19921;-62
2023/11/28 11:02:11;;;;;;;11.57;2.70;;;6.20;99.90;;;;;;5025228;28;20968;-62
2023/11/28 11:04:38;;;;;;;7.93;2.58;;;6.20;99.90;;;;;;5011381;28;20051;-62
2023/11/28 11:07:05;;;;;;;11.77;2.60;;;6.20;99.90;;;;;;5010355;28;20056;-62
2023/11/28 11:09:32;;;;;;;7.07;2.50;;;6.20;99.90;;;;;;5030288;28;20049;-62
2023/11/28 11:11:59;;;;;;;10.13;2.10;;;6.20;99.90;;;;;;5030913;28;20109;-63
2023/11/28 11:15:05;;;;;;;7.07;1.98;;;6.20;99.90;;;;;;5011531;28;20041;-62
2023/11/28 11:17:40;;;;;;;6.28;3.08;;;6.20;99.90;;;;;;5019566;28;20053;-62
2023/11/28 11:20:08;;;;;;;6.40;2.08;;;6.30;99.90;;;;;;5011578;28;20045;-63
2023/11/28 11:22:39;;;;;;;9.30;2.13;;;6.30;99.90;;;;;;4996184;28;20049;-63
2023/11/28 11:25:06;;;;;;;9.70;2.22;;;6.40;99.90;;;;;;5011518;28;20050;-63
2023/11/28 11:27:33;;;;;;;15.98;3.33;;;6.40;99.90;;;;;;5029831;28;20049;-62
2023/11/28 11:30:04;;;;;;;5.90;2.17;;;6.40;99.90;;;;;;5030002;28;20485;-62
2023/11/28 11:32:34;;;;;;;7.30;2.17;;;6.50;99.90;;;;;;5028732;28;20063;-62
2023/11/28 11:35:04;;;;;;;9.32;1.95;;;6.50;99.90;;;;;;5026496;28;20049;-62
2023/11/28 11:37:32;;;;;;;10.63;1.92;;;6.50;99.90;;;;;;5030073;28;20037;-63
2023/11/28 11:40:00;;;;;;;5.22;1.85;;;6.50;99.90;;;;;;5012152;28;20053;-62
2023/11/28 11:42:29;;;;;;;12.07;2.60;;;6.60;99.90;;;;;;5029004;28;20057;-63
2023/11/28 11:44:58;;;;;;;5.30;2.08;;;6.60;99.90;;;;;;4998474;28;20099;-63
2023/11/28 11:47:26;;;;;;;8.07;1.83;;;6.70;99.90;;;;;;4995124;28;20049;-64
2023/11/28 11:49:56;;;;;;;11.65;1.63;;;6.70;99.90;;;;;;5011871;28;20238;-63
2023/11/28 11:52:24;;;;;;;18.90;2.35;;;6.80;99.90;;;;;;5012000;28;20107;-63
2023/11/28 11:54:52;;;;;;;16.48;2.28;;;6.80;99.90;;;;;;5029263;28;20103;-64
2023/11/28 11:57:20;;;;;;;7.45;1.63;;;6.90;99.90;;;;;;5008341;28;20056;-64
2023/11/28 11:59:48;;;;;;;6.57;1.15;;;6.90;99.90;;;;;;5011869;28;20057;-63
2023/11/28 12:02:15;;;;;;;7.20;1.17;;;6.90;99.90;;;;;;5028760;28;20057;-63
2023/11/28 12:04:43;;;;;;;4.93;1.13;;;6.90;99.90;;;;;;5028843;28;20049;-63
2023/11/28 12:07:12;;;;;;;9.88;1.33;;;6.90;99.90;;;;;;5011405;28;20099;-63
2023/11/28 12:09:39;;;;;;;5.45;1.33;;;6.90;99.90;;;;;;5029280;28;20053;-63
2023/11/28 12:12:08;;;;;;;2.92;0.88;;;6.90;99.90;;;;;;5029028;28;20205;-63
2023/11/28 12:14:36;;;;;;;3.95;0.85;;;7.00;99.90;;;;;;5028935;28;20478;-63
2023/11/28 12:17:03;;;;;;;4.90;1.48;;;7.00;99.90;;;;;;5028016;28;20053;-63
2023/11/28 12:19:30;;;;;;;11.50;1.40;;;7.00;99.90;;;;;;5025840;28;20108;-62
2023/11/28 12:21:57;;;;;;;8.18;1.42;;;7.10;99.90;;;;;;5011046;28;20041;-63
2023/11/28 12:24:24;;;;;;;5.70;1.63;;;7.10;99.90;;;;;;5028879;28;20052;-63
2023/11/28 12:26:55;;;;;;;12.85;1.98;;;7.10;99.90;;;;;;5028370;28;20069;-62
2023/11/28 12:29:25;;;;;;;8.93;1.30;;;7.10;99.90;;;;;;5027193;28;20506;-62
2023/11/28 12:31:53;;;;;;;8.57;1.63;;;7.00;99.90;;;;;;5010973;28;20046;-62
2023/11/28 12:34:30;;;;;;;13.10;2.10;;;7.00;99.90;;;;;;5010586;28;20115;-62
2023/11/28 12:36:57;;;;;;;14.00;3.47;;;7.30;99.90;;;;;;5027927;28;20049;-62
2023/11/28 12:39:25;;;;;;;3.58;1.35;;;7.10;99.90;;;;;;5028540;28;20115;-62
2023/11/28 12:41:53;;;;;;;12.10;1.50;;;7.00;99.90;;;;;;5021090;28;20069;-63
2023/11/28 12:44:28;;;;;;;7.30;1.58;;;7.00;99.90;;;;;;5010639;28;20131;-62
2023/11/28 12:46:55;;;;;;;10.90;1.67;;;7.00;99.90;;;;;;5019151;28;20045;-62
2023/11/28 12:49:24;;;;;;;10.43;1.83;;;7.00;99.90;;;;;;5027632;28;20132;-62
2023/11/28 12:51:55;;;;;;;4.82;1.23;;;6.90;99.90;;;;;;5028043;28;20057;-61
2023/11/28 12:54:22;;;;;;;11.32;2.50;;;7.00;99.90;;;;;;5026482;28;20427;-62
2023/11/28 12:56:55;;;;;;;13.80;1.88;;;6.90;99.90;;;;;;5028015;28;20054;-64